Time;durP1;ratioP1;P1;durP2;ratioP2;P2;SDS_P1;SDS_P2;PMS_P1;PMS_P2;Temp;Humidity;BMP_temperature;BMP_pressure;BME280_temperature;BME280_humidity;BME280_pressure;Samples;Min_cycle;Max_cycle;Signal;HPM_P1;HPM_P2
2022/08/03 00:01:17;;;;;;;6.43;2.45;;;20.40;99.90;;;;;;5063224;28;20055;-66
2022/08/03 00:03:43;;;;;;;9.45;2.75;;;20.40;99.90;;;;;;5061764;28;20076;-66
2022/08/03 00:06:09;;;;;;;6.57;2.53;;;20.30;99.90;;;;;;5065103;28;20078;-66
2022/08/03 00:08:35;;;;;;;9.25;2.75;;;20.30;99.90;;;;;;5079636;28;20045;-66
2022/08/03 00:11:00;;;;;;;11.40;3.03;;;20.40;99.90;;;;;;5079711;28;20082;-66
2022/08/03 00:13:26;;;;;;;8.73;2.50;;;20.40;99.90;;;;;;5082589;28;20051;-66
2022/08/03 00:15:53;;;;;;;8.57;2.70;;;20.40;99.90;;;;;;5083319;28;20276;-66
2022/08/03 00:18:18;;;;;;;11.82;2.95;;;20.40;99.90;;;;;;5057098;28;20044;-66
2022/08/03 00:20:44;;;;;;;6.50;2.20;;;20.40;99.90;;;;;;5078336;28;20047;-66
2022/08/03 00:23:10;;;;;;;6.25;2.30;;;20.40;99.90;;;;;;5061161;28;20071;-66
2022/08/03 00:25:36;;;;;;;6.13;2.40;;;20.30;99.90;;;;;;5076255;28;20101;-66
2022/08/03 00:28:03;;;;;;;9.60;3.15;;;20.30;99.90;;;;;;5063074;28;20040;-66
2022/08/03 00:30:30;;;;;;;9.07;2.97;;;20.30;99.90;;;;;;5051334;28;20052;-66
2022/08/03 00:32:56;;;;;;;7.57;2.90;;;20.30;99.90;;;;;;5055181;28;20044;-66
2022/08/03 00:35:22;;;;;;;6.47;2.60;;;20.20;99.90;;;;;;5082347;28;20080;-66
2022/08/03 00:37:48;;;;;;;8.85;2.97;;;20.20;99.90;;;;;;5065828;28;20395;-66
2022/08/03 00:40:15;;;;;;;9.13;3.00;;;20.10;99.90;;;;;;5064041;28;20056;-66
2022/08/03 00:42:58;;;;;;;8.13;2.90;;;20.10;99.90;;;;;;5062823;28;20056;-66
2022/08/03 00:45:33;;;;;;;5.95;2.60;;;20.10;99.90;;;;;;5081257;28;20045;-66
2022/08/03 00:47:59;;;;;;;9.63;3.35;;;20.10;99.90;;;;;;5080252;28;20044;-66
2022/08/03 00:50:28;;;;;;;11.90;3.28;;;20.10;99.90;;;;;;5068018;28;20068;-66
2022/08/03 00:52:55;;;;;;;5.97;2.92;;;20.10;99.90;;;;;;5064283;28;20057;-66
2022/08/03 00:55:22;;;;;;;6.55;3.15;;;20.10;99.90;;;;;;5085779;28;20045;-66
2022/08/03 00:57:48;;;;;;;9.00;3.13;;;20.10;99.90;;;;;;5065425;28;20036;-66
2022/08/03 01:00:20;;;;;;;9.10;2.97;;;20.10;99.90;;;;;;5068005;28;20071;-66
2022/08/03 01:02:46;;;;;;;7.78;3.00;;;20.00;99.90;;;;;;5082380;28;20041;-66
2022/08/03 01:05:12;;;;;;;9.35;3.20;;;20.00;99.90;;;;;;5085735;28;20044;-66
2022/08/03 01:08:04;;;;;;;8.05;2.80;;;20.00;99.90;;;;;;5064265;28;20040;-66
2022/08/03 01:10:44;;;;;;;10.05;2.83;;;20.00;99.90;;;;;;5063409;28;20056;-66
2022/08/03 01:13:49;;;;;;;9.18;3.90;;;20.00;99.90;;;;;;5082662;28;20106;-66
2022/08/03 01:16:18;;;;;;;10.35;3.50;;;19.90;99.90;;;;;;5065071;28;20049;-66
2022/08/03 01:19:07;;;;;;;11.98;4.15;;;19.90;99.90;;;;;;5051315;28;20092;-66
2022/08/03 01:21:58;;;;;;;11.60;4.55;;;19.90;99.90;;;;;;5068391;28;20044;-66
2022/08/03 01:24:41;;;;;;;7.78;3.17;;;19.90;99.90;;;;;;5088681;28;20060;-66
2022/08/03 01:27:28;;;;;;;9.50;4.20;;;19.80;99.90;;;;;;5094628;28;20515;-66
2022/08/03 01:30:05;;;;;;;9.27;3.85;;;19.80;99.90;;;;;;5094878;28;20074;-66
2022/08/03 01:32:59;;;;;;;10.93;3.90;;;19.80;99.90;;;;;;5103615;28;20043;-66
2022/08/03 01:35:46;;;;;;;8.70;4.10;;;19.80;99.90;;;;;;5104450;28;20048;-66
2022/08/03 01:38:16;;;;;;;7.32;3.42;;;19.70;99.90;;;;;;5097839;28;20049;-66
2022/08/03 01:40:45;;;;;;;7.57;3.30;;;19.70;99.90;;;;;;5099968;28;20052;-66
2022/08/03 01:43:15;;;;;;;8.90;4.27;;;19.60;99.90;;;;;;5103259;28;20047;-66
2022/08/03 01:45:43;;;;;;;8.40;4.43;;;19.60;99.90;;;;;;5102329;28;20063;-66
2022/08/03 01:48:11;;;;;;;9.85;3.35;;;19.60;99.90;;;;;;5099170;28;20049;-66
2022/08/03 01:50:37;;;;;;;6.97;3.75;;;19.50;99.90;;;;;;5106524;28;20052;-66
2022/08/03 01:53:06;;;;;;;8.90;3.92;;;19.50;99.90;;;;;;5090926;28;20096;-66
2022/08/03 01:55:35;;;;;;;11.23;3.63;;;19.60;99.90;;;;;;5092560;28;20468;-66
2022/08/03 01:58:03;;;;;;;10.05;3.55;;;19.50;99.90;;;;;;5095166;28;20486;-66
2022/08/03 02:00:31;;;;;;;7.97;3.40;;;19.50;99.90;;;;;;5106009;28;20384;-66
2022/08/03 02:02:57;;;;;;;9.10;4.13;;;19.50;99.90;;;;;;5103762;28;20104;-66
2022/08/03 02:05:25;;;;;;;10.25;3.58;;;19.50;99.90;;;;;;5099949;28;20570;-66
2022/08/03 02:07:52;;;;;;;10.82;4.00;;;19.40;99.90;;;;;;5105245;28;20044;-66
2022/08/03 02:10:20;;;;;;;11.88;3.58;;;19.40;99.90;;;;;;5085823;28;20442;-66
2022/08/03 02:12:49;;;;;;;11.85;4.25;;;19.40;99.90;;;;;;5099058;28;20492;-66
2022/08/03 02:15:16;;;;;;;7.18;3.50;;;19.30;99.90;;;;;;5101280;28;20401;-66
2022/08/03 02:17:44;;;;;;;9.32;4.15;;;19.30;99.90;;;;;;5112347;28;20052;-66
2022/08/03 02:20:12;;;;;;;12.18;4.00;;;19.30;99.90;;;;;;5103994;28;20048;-66
2022/08/03 02:22:40;;;;;;;12.95;4.03;;;19.30;99.90;;;;;;5102057;28;20493;-66
2022/08/03 02:25:10;;;;;;;10.60;4.38;;;19.20;99.90;;;;;;5098520;28;20064;-66
2022/08/03 02:27:41;;;;;;;9.85;3.88;;;19.30;99.90;;;;;;5104870;28;20052;-66
2022/08/03 02:30:12;;;;;;;7.65;3.45;;;19.30;99.90;;;;;;5100927;28;20063;-66
2022/08/03 02:32:40;;;;;;;10.48;4.07;;;19.30;99.90;;;;;;5103028;28;20546;-66
2022/08/03 02:35:10;;;;;;;9.35;3.88;;;19.30;99.90;;;;;;5101983;28;20046;-66
2022/08/03 02:37:42;;;;;;;10.93;4.40;;;19.20;99.90;;;;;;5104437;28;20130;-66
2022/08/03 02:40:10;;;;;;;7.30;3.60;;;19.20;99.90;;;;;;5102639;28;20040;-66
2022/08/03 02:42:38;;;;;;;8.93;3.97;;;19.20;99.90;;;;;;5086688;28;20392;-66
2022/08/03 02:45:11;;;;;;;10.32;4.10;;;19.20;99.90;;;;;;5099450;28;20048;-66
2022/08/03 02:47:40;;;;;;;8.50;3.63;;;19.10;99.90;;;;;;5097804;28;20067;-66
2022/08/03 02:50:11;;;;;;;6.32;3.85;;;19.10;99.90;;;;;;5096035;28;20044;-66
2022/08/03 02:52:38;;;;;;;10.20;3.97;;;19.10;99.90;;;;;;5089453;28;20369;-66
2022/08/03 02:55:06;;;;;;;12.60;4.30;;;19.10;99.90;;;;;;5096734;28;20036;-66
2022/08/03 02:57:34;;;;;;;8.93;3.88;;;19.10;99.90;;;;;;5101258;28;20044;-66
2022/08/03 03:00:01;;;;;;;10.43;3.90;;;19.10;99.90;;;;;;5099687;28;20513;-66
2022/08/03 03:02:27;;;;;;;6.22;3.55;;;19.10;99.90;;;;;;5094271;28;20047;-66
2022/08/03 03:04:54;;;;;;;9.63;3.95;;;19.10;99.90;;;;;;5093983;28;20059;-66
2022/08/03 03:07:21;;;;;;;8.35;3.88;;;19.00;99.90;;;;;;5087982;28;20052;-66
2022/08/03 03:09:47;;;;;;;10.32;3.92;;;19.00;99.90;;;;;;5094955;28;20028;-66
2022/08/03 03:12:14;;;;;;;12.18;3.75;;;18.90;99.90;;;;;;5097049;28;20044;-66
2022/08/03 03:14:40;;;;;;;9.02;4.18;;;18.90;99.90;;;;;;5102745;28;20048;-66
2022/08/03 03:17:07;;;;;;;8.70;3.60;;;18.90;99.90;;;;;;5091445;28;20087;-66
2022/08/03 03:19:34;;;;;;;12.05;4.75;;;19.00;99.90;;;;;;5094011;28;20109;-66
2022/08/03 03:22:02;;;;;;;9.60;3.80;;;19.00;99.90;;;;;;5090190;28;20032;-66
2022/08/03 03:24:29;;;;;;;8.80;4.00;;;19.00;99.90;;;;;;5098723;28;20043;-66
2022/08/03 03:26:58;;;;;;;11.77;4.43;;;18.90;99.90;;;;;;5099115;28;20048;-66
2022/08/03 03:29:24;;;;;;;10.23;4.55;;;19.00;99.90;;;;;;5099406;28;20040;-66
2022/08/03 03:31:50;;;;;;;8.70;4.05;;;19.00;99.90;;;;;;5098444;28;20070;-66
2022/08/03 03:34:17;;;;;;;9.00;4.00;;;19.00;99.90;;;;;;5110254;28;20132;-66
2022/08/03 03:36:43;;;;;;;9.65;4.28;;;19.00;99.90;;;;;;5080734;28;20036;-66
2022/08/03 03:39:09;;;;;;;11.68;4.05;;;18.90;99.90;;;;;;5094912;28;20063;-66
2022/08/03 03:41:35;;;;;;;7.30;3.70;;;19.00;99.90;;;;;;5098841;28;20048;-66
2022/08/03 03:44:01;;;;;;;7.82;5.05;;;19.00;99.90;;;;;;5095783;28;20056;-66
2022/08/03 03:46:27;;;;;;;9.55;4.30;;;18.90;99.90;;;;;;5102491;28;20055;-66
2022/08/03 03:48:53;;;;;;;9.70;4.38;;;18.90;99.90;;;;;;5101331;28;20070;-66
2022/08/03 03:51:19;;;;;;;8.93;3.60;;;18.80;99.90;;;;;;5081831;28;20032;-66
2022/08/03 03:53:56;;;;;;;9.93;4.20;;;18.70;99.90;;;;;;5094180;28;20521;-66
2022/08/03 03:56:21;;;;;;;10.55;4.55;;;18.70;99.90;;;;;;5100899;28;20044;-66
2022/08/03 03:58:47;;;;;;;8.30;4.03;;;18.80;99.90;;;;;;5097210;28;20126;-66
2022/08/03 04:01:13;;;;;;;10.70;3.97;;;18.70;99.90;;;;;;5095738;28;20173;-66
2022/08/03 04:03:39;;;;;;;7.63;3.47;;;18.70;99.90;;;;;;5099497;28;20463;-66
2022/08/03 04:11:50;;;;;;;11.60;4.13;;;18.60;99.90;;;;;;5042972;28;20053;-66
2022/08/03 04:14:18;;;;;;;7.53;3.40;;;18.50;99.90;;;;;;5062360;28;20049;-66
2022/08/03 04:16:49;;;;;;;8.52;3.83;;;18.60;99.90;;;;;;5044968;28;20061;-66
2022/08/03 04:19:39;;;;;;;9.18;3.67;;;18.60;99.90;;;;;;5044341;28;20101;-66
2022/08/03 04:22:09;;;;;;;10.25;3.97;;;18.60;99.90;;;;;;5036522;28;20052;-66
2022/08/03 04:24:47;;;;;;;8.75;3.65;;;18.60;99.90;;;;;;5045292;28;20053;-66
2022/08/03 04:27:16;;;;;;;12.40;3.80;;;18.60;99.90;;;;;;5045894;28;20076;-66
2022/08/03 04:29:46;;;;;;;8.88;3.63;;;18.60;99.90;;;;;;5061163;28;20080;-66
2022/08/03 04:32:12;;;;;;;;;;;18.60;99.90;;;;;;5060944;28;20049;-66
2022/08/03 04:34:38;;;;;;;12.05;4.15;;;18.50;99.90;;;;;;5041015;28;19929;-66
2022/08/03 04:37:16;;;;;;;11.70;3.95;;;18.50;99.90;;;;;;5062258;28;20994;-66
2022/08/03 04:39:44;;;;;;;10.65;4.00;;;18.50;99.90;;;;;;5045526;28;20072;-66
2022/08/03 04:42:13;;;;;;;13.90;3.85;;;18.60;99.90;;;;;;5041848;28;20085;-66
2022/08/03 04:44:42;;;;;;;8.10;4.47;;;18.50;99.90;;;;;;5062705;28;20067;-67
2022/08/03 04:47:08;;;;;;;10.70;4.00;;;18.50;99.90;;;;;;5058770;28;20057;-66
2022/08/03 04:49:36;;;;;;;7.95;3.85;;;18.50;99.90;;;;;;5097886;28;20043;-66
2022/08/03 04:52:03;;;;;;;13.80;3.67;;;18.50;99.90;;;;;;5099773;28;20048;-66
2022/08/03 04:54:29;;;;;;;8.10;3.72;;;18.50;99.90;;;;;;5099138;28;20048;-65
2022/08/03 04:56:55;;;;;;;10.75;3.35;;;18.60;99.90;;;;;;5099952;28;20059;-65
2022/08/03 04:59:20;;;;;;;7.03;3.45;;;18.60;99.90;;;;;;5100467;28;20045;-64
2022/08/03 05:01:47;;;;;;;10.43;4.07;;;18.70;99.90;;;;;;5102926;28;20118;-64
2022/08/03 05:04:13;;;;;;;10.40;3.85;;;18.80;99.90;;;;;;5081386;28;20048;-64
2022/08/03 05:06:39;;;;;;;12.52;3.80;;;18.70;99.90;;;;;;5099764;28;20067;-64
2022/08/03 05:09:05;;;;;;;9.68;3.88;;;18.80;99.90;;;;;;5096897;28;20075;-63
2022/08/03 05:11:30;;;;;;;8.48;4.00;;;18.70;99.90;;;;;;5093572;28;20051;-64
2022/08/03 05:13:56;;;;;;;10.93;4.18;;;18.80;99.90;;;;;;5086020;28;20048;-64
2022/08/03 05:16:24;;;;;;;11.85;4.55;;;18.80;99.90;;;;;;5099724;28;20100;-63
2022/08/03 05:18:50;;;;;;;9.48;4.03;;;18.80;99.90;;;;;;5101353;28;20040;-64
2022/08/03 05:21:15;;;;;;;15.65;4.53;;;18.80;99.90;;;;;;5100627;28;20295;-64
2022/08/03 05:23:42;;;;;;;10.50;3.90;;;18.80;99.90;;;;;;5099928;28;20048;-65
2022/08/03 05:26:10;;;;;;;10.27;4.75;;;18.90;99.90;;;;;;5100649;28;20048;-63
2022/08/03 05:28:36;;;;;;;11.60;4.47;;;18.90;99.90;;;;;;5101010;28;20040;-68
2022/08/03 05:31:02;;;;;;;9.77;3.97;;;19.00;99.90;;;;;;5094850;28;20037;-69
2022/08/03 05:33:28;;;;;;;12.02;4.13;;;19.00;99.90;;;;;;5094884;28;20119;-70
2022/08/03 05:35:53;;;;;;;9.13;4.13;;;19.10;99.90;;;;;;5103627;28;20060;-66
2022/08/03 05:38:19;;;;;;;13.88;4.93;;;19.20;99.90;;;;;;5105008;28;20043;-64
2022/08/03 05:40:45;;;;;;;9.45;4.38;;;19.20;99.90;;;;;;5102218;28;20059;-65
2022/08/03 05:43:10;;;;;;;13.23;5.30;;;19.20;99.90;;;;;;5099320;28;20044;-64
2022/08/03 05:45:37;;;;;;;12.80;4.65;;;19.20;99.90;;;;;;5100105;28;20071;-64
2022/08/03 05:48:04;;;;;;;11.63;4.63;;;19.20;99.90;;;;;;5103656;28;20538;-64
2022/08/03 05:50:30;;;;;;;8.60;4.90;;;19.30;99.90;;;;;;5095103;28;20062;-64
2022/08/03 05:52:58;;;;;;;10.02;4.75;;;19.30;99.90;;;;;;5098720;28;20499;-64
2022/08/03 05:55:24;;;;;;;12.40;4.30;;;19.30;99.90;;;;;;5101117;28;20562;-64
2022/08/03 05:57:50;;;;;;;13.70;5.30;;;19.40;99.90;;;;;;5103169;28;20044;-64
2022/08/03 06:00:16;;;;;;;14.95;5.53;;;19.40;99.90;;;;;;5104325;28;20571;-64
2022/08/03 06:02:42;;;;;;;9.60;4.90;;;19.40;99.90;;;;;;5078458;28;20459;-64
2022/08/03 06:05:09;;;;;;;14.65;4.68;;;19.50;99.90;;;;;;5101850;28;20040;-64
2022/08/03 06:07:34;;;;;;;16.60;5.13;;;19.50;99.90;;;;;;5094763;28;20078;-64
2022/08/03 06:10:01;;;;;;;11.05;4.75;;;19.60;99.90;;;;;;5098959;28;20076;-64
2022/08/03 06:12:28;;;;;;;12.32;4.85;;;19.60;99.90;;;;;;5106471;28;20044;-64
2022/08/03 06:14:53;;;;;;;15.05;4.82;;;19.60;99.90;;;;;;5103107;28;20271;-64
2022/08/03 06:17:19;;;;;;;15.32;5.57;;;19.70;99.90;;;;;;5103684;28;20104;-64
2022/08/03 06:19:45;;;;;;;13.40;4.95;;;19.70;99.90;;;;;;5100714;28;20061;-64
2022/08/03 06:22:10;;;;;;;18.48;4.95;;;19.80;99.90;;;;;;5094139;28;20083;-64
2022/08/03 06:24:36;;;;;;;11.30;5.10;;;19.80;99.90;;;;;;5101890;28;20060;-65
2022/08/03 06:27:02;;;;;;;21.55;5.32;;;19.90;99.90;;;;;;5102775;28;20090;-64
2022/08/03 06:29:27;;;;;;;11.40;5.43;;;19.90;99.90;;;;;;5101687;28;20100;-64
2022/08/03 06:31:53;;;;;;;13.25;5.68;;;20.00;99.90;;;;;;5098636;28;20044;-64
2022/08/03 06:34:19;;;;;;;11.95;4.57;;;20.00;99.90;;;;;;5097245;28;20036;-64
2022/08/03 06:36:47;;;;;;;15.07;5.07;;;20.00;99.90;;;;;;5104654;28;20032;-64
2022/08/03 06:39:13;;;;;;;14.13;5.15;;;20.10;99.90;;;;;;5097680;28;20057;-64
2022/08/03 06:41:39;;;;;;;13.75;5.32;;;20.10;99.90;;;;;;5092560;28;20036;-64
2022/08/03 06:44:04;;;;;;;14.30;5.60;;;20.20;99.90;;;;;;5101715;28;20058;-64
2022/08/03 06:46:30;;;;;;;11.15;4.93;;;20.20;99.90;;;;;;5103806;28;20101;-64
2022/08/03 06:48:56;;;;;;;12.93;5.28;;;20.20;99.90;;;;;;5104258;28;20040;-65
2022/08/03 06:51:22;;;;;;;16.23;5.63;;;20.20;99.90;;;;;;5102082;28;20051;-64
2022/08/03 06:53:48;;;;;;;14.18;4.85;;;20.20;99.90;;;;;;5084660;28;20072;-65
2022/08/03 06:56:13;;;;;;;10.50;4.75;;;20.20;99.90;;;;;;5095217;28;20412;-64
2022/08/03 06:58:39;;;;;;;14.50;5.07;;;20.30;99.90;;;;;;5102464;28;20036;-64
2022/08/03 07:01:05;;;;;;;14.70;5.07;;;20.40;99.90;;;;;;5100505;28;20055;-64
2022/08/03 07:03:31;;;;;;;16.50;5.32;;;20.30;99.90;;;;;;5100174;28;20044;-64
2022/08/03 07:05:56;;;;;;;13.25;4.97;;;20.40;99.90;;;;;;5102951;28;20040;-64
2022/08/03 07:08:23;;;;;;;17.10;5.65;;;20.40;99.90;;;;;;5095335;28;20040;-64
2022/08/03 07:10:49;;;;;;;21.95;6.22;;;20.50;99.90;;;;;;5104727;28;20445;-64
2022/08/03 07:13:14;;;;;;;13.77;6.10;;;20.50;99.90;;;;;;5099843;28;20066;-64
2022/08/03 07:15:40;;;;;;;16.98;5.07;;;20.50;99.90;;;;;;5105285;28;20039;-64
2022/08/03 07:18:06;;;;;;;14.77;4.60;;;20.60;99.90;;;;;;5103898;28;20075;-64
2022/08/03 07:20:32;;;;;;;14.10;4.95;;;20.70;99.90;;;;;;5101900;28;20410;-64
2022/08/03 07:22:58;;;;;;;13.15;4.93;;;20.70;99.90;;;;;;5101061;28;20040;-64
2022/08/03 07:25:24;;;;;;;16.13;5.20;;;20.70;99.90;;;;;;5105903;28;20121;-64
2022/08/03 07:27:49;;;;;;;15.13;5.60;;;20.70;99.90;;;;;;5103615;28;20507;-65
2022/08/03 07:30:15;;;;;;;14.40;5.50;;;20.80;99.90;;;;;;5104864;28;20083;-65
2022/08/03 07:32:41;;;;;;;14.70;4.85;;;20.80;99.90;;;;;;5086477;28;20106;-64
2022/08/03 07:35:09;;;;;;;12.85;4.60;;;20.80;99.90;;;;;;5093681;28;20055;-64
2022/08/03 07:37:35;;;;;;;17.05;5.70;;;20.80;99.90;;;;;;5100416;28;20501;-64
2022/08/03 07:40:02;;;;;;;17.48;5.50;;;20.90;99.90;;;;;;5103089;28;20042;-65
2022/08/03 07:42:29;;;;;;;12.65;4.78;;;21.00;99.90;;;;;;5100319;28;20048;-64
2022/08/03 07:44:55;;;;;;;16.83;4.90;;;21.00;99.90;;;;;;5100904;28;20048;-65
2022/08/03 07:47:23;;;;;;;14.02;4.57;;;21.00;99.90;;;;;;5096919;28;20054;-64
2022/08/03 07:49:49;;;;;;;14.02;4.55;;;21.10;99.90;;;;;;5104284;28;20044;-64
2022/08/03 07:54:59;;;;;;;15.93;4.88;;;21.20;99.90;;;;;;5101855;28;20052;-64
2022/08/03 07:57:25;;;;;;;10.13;4.22;;;21.20;99.90;;;;;;5099668;28;20063;-64
2022/08/03 07:59:51;;;;;;;15.45;4.45;;;21.20;99.90;;;;;;5100214;28;20043;-64
2022/08/03 08:02:16;;;;;;;12.55;4.90;;;21.30;99.90;;;;;;5091988;28;20036;-64
2022/08/03 08:04:42;;;;;;;15.10;3.60;;;21.40;99.90;;;;;;5093984;28;20041;-64
2022/08/03 08:07:08;;;;;;;12.93;4.70;;;21.50;99.90;;;;;;5097622;28;20113;-65
2022/08/03 08:09:34;;;;;;;17.35;5.00;;;21.60;99.90;;;;;;5097289;28;20044;-65
2022/08/03 08:11:59;;;;;;;14.35;4.57;;;21.60;99.90;;;;;;5098657;28;20040;-64
2022/08/03 08:14:25;;;;;;;14.25;4.50;;;21.70;99.90;;;;;;5093667;28;20040;-64
2022/08/03 08:16:51;;;;;;;14.77;4.75;;;21.80;99.90;;;;;;5100775;28;20048;-65
2022/08/03 08:19:16;;;;;;;18.27;5.32;;;21.80;99.90;;;;;;5103454;28;20111;-64
2022/08/03 08:21:43;;;;;;;16.38;4.53;;;21.90;99.90;;;;;;5096160;28;20072;-65
2022/08/03 08:24:09;;;;;;;16.52;4.40;;;21.90;99.90;;;;;;5088888;28;20061;-64
2022/08/03 08:26:35;;;;;;;17.33;5.10;;;22.00;99.90;;;;;;5080043;28;20044;-64
2022/08/03 08:29:02;;;;;;;15.07;4.68;;;21.90;99.90;;;;;;5100723;28;20046;-64
2022/08/03 08:31:28;;;;;;;17.55;5.68;;;22.00;99.90;;;;;;5093328;28;20044;-64
2022/08/03 08:33:53;;;;;;;19.23;5.28;;;21.90;99.90;;;;;;5087639;28;20108;-64
2022/08/03 08:36:19;;;;;;;12.18;4.15;;;22.00;99.90;;;;;;5103023;28;20040;-65
2022/08/03 08:38:45;;;;;;;14.52;4.05;;;22.00;99.90;;;;;;5100340;28;20120;-65
2022/08/03 08:41:12;;;;;;;16.05;3.92;;;22.10;99.90;;;;;;5102473;28;20051;-64
2022/08/03 08:43:38;;;;;;;18.48;4.93;;;22.20;99.90;;;;;;5098944;28;20045;-64
2022/08/03 08:46:07;;;;;;;15.90;4.30;;;22.30;99.90;;;;;;5101702;28;20039;-65
2022/08/03 08:48:34;;;;;;;14.73;4.43;;;22.30;99.90;;;;;;5098516;28;20051;-64
2022/08/03 08:51:00;;;;;;;20.00;4.50;;;22.40;99.90;;;;;;5095272;28;20120;-64
2022/08/03 08:53:28;;;;;;;13.10;3.85;;;22.50;99.90;;;;;;5098828;28;20063;-65
2022/08/03 08:55:59;;;;;;;14.40;4.15;;;22.50;99.90;;;;;;5103854;28;20059;-64
2022/08/03 08:58:27;;;;;;;15.05;4.03;;;22.60;99.90;;;;;;5095345;28;20076;-64
2022/08/03 09:00:52;;;;;;;12.65;3.85;;;22.60;99.90;;;;;;5095654;28;20041;-65
2022/08/03 09:03:18;;;;;;;19.40;4.78;;;22.70;99.90;;;;;;5098969;28;20083;-64
2022/08/03 09:05:45;;;;;;;13.60;3.90;;;22.80;99.90;;;;;;5100297;28;20373;-65
2022/08/03 09:08:10;;;;;;;11.45;3.85;;;22.80;99.90;;;;;;5100369;28;20049;-65
2022/08/03 09:10:36;;;;;;;10.02;3.60;;;22.90;99.90;;;;;;5104044;28;20063;-64
2022/08/03 09:13:02;;;;;;;19.42;5.03;;;23.00;99.90;;;;;;5101965;28;20033;-64
2022/08/03 09:15:31;;;;;;;14.23;4.55;;;23.10;99.90;;;;;;5106127;28;20040;-65
2022/08/03 09:18:01;;;;;;;12.27;3.92;;;23.20;99.90;;;;;;5101846;28;20067;-65
2022/08/03 09:20:30;;;;;;;15.02;4.35;;;23.20;99.90;;;;;;5105311;28;20111;-65
2022/08/03 09:23:09;;;;;;;16.45;4.57;;;23.20;99.90;;;;;;5102208;28;20048;-65
2022/08/03 09:25:42;;;;;;;12.18;4.20;;;23.30;99.90;;;;;;5102977;28;20063;-65
2022/08/03 09:28:15;;;;;;;13.82;4.07;;;23.40;99.90;;;;;;5104571;28;20044;-65
2022/08/03 09:30:43;;;;;;;16.42;4.18;;;23.50;99.90;;;;;;5082981;28;20131;-65
2022/08/03 09:33:15;;;;;;;15.57;4.38;;;23.60;99.90;;;;;;5095959;28;20044;-65
2022/08/03 09:35:48;;;;;;;16.60;4.78;;;23.70;99.90;;;;;;5105826;28;20070;-65
2022/08/03 09:38:27;;;;;;;11.60;3.63;;;23.60;99.90;;;;;;5094215;28;20040;-64
2022/08/03 09:40:54;;;;;;;11.15;3.95;;;23.80;99.90;;;;;;5105111;28;20046;-64
2022/08/03 09:43:21;;;;;;;16.70;4.63;;;23.90;99.90;;;;;;5076437;28;20044;-65
2022/08/03 09:45:47;;;;;;;16.25;4.28;;;24.00;99.90;;;;;;5088972;28;20040;-65
2022/08/03 09:48:23;;;;;;;13.73;4.43;;;24.00;99.90;;;;;;5067805;28;20060;-65
2022/08/03 09:50:49;;;;;;;10.93;3.30;;;24.10;99.90;;;;;;5080413;28;20102;-65
2022/08/03 09:53:16;;;;;;;14.73;4.25;;;24.10;99.90;;;;;;5086634;28;20052;-65
2022/08/03 09:55:56;;;;;;;12.00;4.22;;;24.30;99.90;;;;;;5089529;28;20055;-65
2022/08/03 09:58:24;;;;;;;13.23;3.83;;;24.30;99.90;;;;;;5082522;28;20049;-65
2022/08/03 10:01:10;;;;;;;12.40;3.50;;;24.30;99.90;;;;;;5078761;28;20052;-65
2022/08/03 10:03:38;;;;;;;13.10;4.15;;;24.40;99.90;;;;;;5074566;28;20063;-65
2022/08/03 10:06:18;;;;;;;14.25;4.30;;;24.50;99.90;;;;;;5085695;28;20146;-65
2022/08/03 10:08:45;;;;;;;12.73;3.70;;;24.50;99.90;;;;;;5071894;28;20461;-65
2022/08/03 10:11:11;;;;;;;14.48;4.57;;;24.50;99.90;;;;;;5100867;28;20044;-65
2022/08/03 10:13:37;;;;;;;14.68;4.22;;;24.50;99.90;;;;;;5079204;28;20040;-65
2022/08/03 10:16:04;;;;;;;13.18;4.15;;;24.50;99.90;;;;;;5085147;28;20399;-65
2022/08/03 10:18:30;;;;;;;12.00;3.67;;;24.60;99.90;;;;;;5106045;28;20468;-65
2022/08/03 10:21:06;;;;;;;11.45;4.13;;;24.70;99.90;;;;;;5077061;28;20098;-65
2022/08/03 10:23:37;;;;;;;12.20;4.05;;;24.80;99.90;;;;;;5103848;28;20039;-65
2022/08/03 10:26:05;;;;;;;14.65;4.07;;;24.80;99.90;;;;;;5086314;28;20056;-64
2022/08/03 10:28:39;;;;;;;11.60;3.72;;;24.90;99.90;;;;;;5089163;28;20123;-65
2022/08/03 10:31:06;;;;;;;14.20;3.97;;;25.00;99.90;;;;;;5081063;28;20048;-64
2022/08/03 10:33:40;;;;;;;18.60;4.30;;;24.90;99.90;;;;;;5092743;28;20068;-65
2022/08/03 10:36:06;;;;;;;15.68;4.53;;;25.00;99.90;;;;;;5105112;28;20562;-65
2022/08/03 10:38:39;;;;;;;21.58;4.22;;;25.10;99.90;;;;;;5102764;28;20091;-65
2022/08/03 10:41:06;;;;;;;16.38;4.20;;;25.10;99.90;;;;;;5076331;28;20113;-65
2022/08/03 10:43:48;;;;;;;18.17;4.00;;;25.20;99.90;;;;;;5078863;28;20508;-65
2022/08/03 10:46:16;;;;;;;17.45;4.50;;;25.20;99.90;;;;;;5078460;28;20124;-65
2022/08/03 10:48:42;;;;;;;12.68;3.80;;;25.30;99.90;;;;;;5082851;28;20055;-64
2022/08/03 10:51:08;;;;;;;17.25;3.88;;;25.40;99.90;;;;;;5099811;28;20048;-65
2022/08/03 10:53:36;;;;;;;16.70;4.10;;;25.50;99.90;;;;;;5103819;28;20044;-65
2022/08/03 10:58:48;;;;;;;14.55;4.00;;;25.90;99.90;;;;;;5104208;28;20484;-65
2022/08/03 11:01:16;;;;;;;19.23;4.28;;;25.80;99.90;;;;;;5077837;28;20123;-65
2022/08/03 11:04:15;;;;;;;17.55;3.70;;;25.80;99.90;;;;;;5086872;28;20047;-65
2022/08/03 11:06:40;;;;;;;18.07;3.83;;;25.90;99.90;;;;;;5087101;28;20535;-65
2022/08/03 11:09:09;;;;;;;14.13;3.97;;;25.90;99.90;;;;;;5082629;28;20291;-65
2022/08/03 11:11:36;;;;;;;15.00;3.73;;;26.00;99.90;;;;;;5086351;28;20091;-65
2022/08/03 11:14:11;;;;;;;20.83;3.95;;;26.00;99.90;;;;;;5076462;28;20305;-65
2022/08/03 11:16:48;;;;;;;19.20;4.20;;;26.10;99.90;;;;;;5100537;28;20051;-65
2022/08/03 11:19:24;;;;;;;15.02;3.85;;;26.00;99.90;;;;;;5076809;28;20052;-65
2022/08/03 11:21:50;;;;;;;20.42;4.03;;;26.10;99.90;;;;;;5100567;28;20110;-65
2022/08/03 11:24:50;;;;;;;18.30;3.53;;;26.10;99.90;;;;;;5103579;28;20052;-65
2022/08/03 11:27:15;;;;;;;16.65;4.18;;;26.20;99.90;;;;;;5098846;28;20119;-65
2022/08/03 11:29:59;;;;;;;18.25;4.80;;;26.20;99.90;;;;;;5098764;28;20041;-65
2022/08/03 11:32:38;;;;;;;15.25;4.47;;;26.30;99.90;;;;;;5102909;28;20546;-65
2022/08/03 11:35:14;;;;;;;;;;;26.20;99.90;;;;;;5093440;28;20067;-64
2022/08/03 11:38:07;;;;;;;12.73;3.85;;;26.20;99.90;;;;;;5081851;28;19920;-65
2022/08/03 11:40:50;;;;;;;14.93;4.22;;;26.30;99.90;;;;;;5092396;28;20049;-65
2022/08/03 11:43:33;;;;;;;13.30;3.65;;;26.30;99.90;;;;;;5103530;28;20039;-65
2022/08/03 11:46:16;;;;;;;14.57;3.90;;;26.40;99.90;;;;;;5081607;28;20063;-65
2022/08/03 11:48:44;;;;;;;20.10;4.45;;;26.70;99.90;;;;;;5077155;28;20059;-65
2022/08/03 11:51:28;;;;;;;19.10;4.05;;;26.80;99.90;;;;;;5099383;28;20045;-65
2022/08/03 11:53:56;;;;;;;13.85;3.45;;;27.00;99.90;;;;;;5082068;28;20063;-65
2022/08/03 11:56:22;;;;;;;12.52;3.42;;;27.00;99.90;;;;;;5078968;28;20056;-65
2022/08/03 11:58:56;;;;;;;12.57;3.95;;;27.20;99.90;;;;;;5082630;28;20055;-65
2022/08/03 12:01:23;;;;;;;15.50;4.10;;;27.20;99.90;;;;;;5082378;28;20086;-65
2022/08/03 12:03:50;;;;;;;16.70;4.35;;;27.30;99.90;;;;;;5090667;28;20052;-65
2022/08/03 12:06:17;;;;;;;17.90;3.95;;;27.40;99.90;;;;;;5079119;28;20123;-65
2022/08/03 12:08:44;;;;;;;16.90;4.10;;;27.40;99.90;;;;;;5077621;28;20040;-65
2022/08/03 12:11:12;;;;;;;14.38;4.40;;;27.40;99.90;;;;;;5080811;28;20056;-65
2022/08/03 12:13:44;;;;;;;14.85;3.72;;;27.40;99.90;;;;;;5082011;28;20046;-65
2022/08/03 12:16:15;;;;;;;14.85;4.28;;;27.30;99.90;;;;;;5088095;28;20047;-65
2022/08/03 12:18:41;;;;;;;12.52;3.28;;;27.30;99.90;;;;;;5095783;28;20150;-65
2022/08/03 12:21:09;;;;;;;11.52;3.72;;;27.40;99.90;;;;;;5093910;28;20055;-65
2022/08/03 12:23:36;;;;;;;13.18;3.28;;;27.50;99.90;;;;;;5103122;28;20040;-65
2022/08/03 12:26:08;;;;;;;16.58;3.97;;;27.50;99.90;;;;;;5082107;28;20054;-65
2022/08/03 12:28:35;;;;;;;18.15;3.70;;;27.50;99.90;;;;;;5077513;28;20048;-65
2022/08/03 12:31:05;;;;;;;11.27;3.53;;;27.70;99.90;;;;;;5102983;28;20051;-65
2022/08/03 12:33:31;;;;;;;14.05;3.58;;;27.70;99.90;;;;;;5076926;28;20045;-65
2022/08/03 12:36:06;;;;;;;16.85;4.20;;;27.90;99.90;;;;;;5080194;28;20409;-65
2022/08/03 12:38:34;;;;;;;14.68;3.35;;;28.10;99.90;;;;;;5094642;28;20074;-65
2022/08/03 12:41:05;;;;;;;18.92;3.58;;;28.10;99.90;;;;;;5083541;28;20051;-65
2022/08/03 12:43:31;;;;;;;13.38;3.97;;;28.20;99.90;;;;;;5081773;28;20044;-65
2022/08/03 12:46:11;;;;;;;10.98;4.10;;;28.20;99.90;;;;;;5104463;28;20044;-65
2022/08/03 12:48:57;;;;;;;14.63;3.85;;;28.30;99.90;;;;;;5106614;28;20056;-65
2022/08/03 12:51:23;;;;;;;11.55;3.33;;;28.40;99.90;;;;;;5087271;28;20101;-65
2022/08/03 12:53:52;;;;;;;17.00;4.25;;;28.60;99.90;;;;;;5101847;28;20040;-65
2022/08/03 12:56:19;;;;;;;12.75;3.22;;;28.70;99.90;;;;;;5084952;28;20054;-65
2022/08/03 12:58:46;;;;;;;13.25;3.40;;;28.70;99.90;;;;;;5082011;28;20095;-65
2022/08/03 13:01:13;;;;;;;15.13;3.40;;;28.80;99.90;;;;;;5087842;28;20055;-65